sensor_id;sensor_type;location;lat;lon;timestamp;pressure;altitude;pressure_sealevel;temperature;humidity
18504;BME280;9381;54.244;10.074;2022-09-23T00:04:40;101503.84;;;11.68;91.86
18504;BME280;9381;54.244;10.074;2022-09-23T00:09:41;101491.31;;;11.60;91.47
18504;BME280;9381;54.244;10.074;2022-09-23T00:14:41;101484.59;;;11.56;91.25
18504;BME280;9381;54.244;10.074;2022-09-23T00:19:42;101480.63;;;11.52;91.05
18504;BME280;9381;54.244;10.074;2022-09-23T00:24:42;101474.16;;;11.47;91.43
18504;BME280;9381;54.244;10.074;2022-09-23T00:29:43;101470.78;;;11.45;91.42
18504;BME280;9381;54.244;10.074;2022-09-23T00:34:43;101471.44;;;11.47;91.06
18504;BME280;9381;54.244;10.074;2022-09-23T00:39:44;101465.38;;;11.45;90.50
18504;BME280;9381;54.244;10.074;2022-09-23T00:44:54;101459.78;;;11.52;89.85
18504;BME280;9381;54.244;10.074;2022-09-23T00:50:34;101451.66;;;11.52;88.65
18504;BME280;9381;54.244;10.074;2022-09-23T00:55:46;101446.69;;;11.63;87.77
18504;BME280;9381;54.244;10.074;2022-09-23T01:00:48;101441.69;;;11.60;87.12
18504;BME280;9381;54.244;10.074;2022-09-23T01:05:49;101443.31;;;11.54;87.02
18504;BME280;9381;54.244;10.074;2022-09-23T01:11:22;101441.22;;;11.50;87.08
18504;BME280;9381;54.244;10.074;2022-09-23T01:26:50;101421.66;;;11.48;86.67
18504;BME280;9381;54.244;10.074;2022-09-23T01:32:06;101418.31;;;11.46;87.09
18504;BME280;9381;54.244;10.074;2022-09-23T01:37:13;101404.53;;;11.47;85.87
18504;BME280;9381;54.244;10.074;2022-09-23T01:42:26;101412.06;;;11.52;85.48
18504;BME280;9381;54.244;10.074;2022-09-23T01:47:33;101396.22;;;11.42;85.73
18504;BME280;9381;54.244;10.074;2022-09-23T01:52:40;101397.47;;;11.40;85.37
18504;BME280;9381;54.244;10.074;2022-09-23T01:57:47;101395.78;;;11.39;86.15
18504;BME280;9381;54.244;10.074;2022-09-23T02:02:57;101387.25;;;11.42;85.97
18504;BME280;9381;54.244;10.074;2022-09-23T02:08:16;101390.81;;;11.49;84.87
18504;BME280;9381;54.244;10.074;2022-09-23T02:13:22;101392.94;;;11.60;84.36
18504;BME280;9381;54.244;10.074;2022-09-23T02:18:34;101382.47;;;11.57;84.65
18504;BME280;9381;54.244;10.074;2022-09-23T02:23:43;101378.75;;;11.58;84.18
18504;BME280;9381;54.244;10.074;2022-09-23T02:28:59;101372.25;;;11.52;84.97
18504;BME280;9381;54.244;10.074;2022-09-23T02:34:21;101367.66;;;11.52;84.40
18504;BME280;9381;54.244;10.074;2022-09-23T02:39:30;101359.72;;;11.45;84.61
18504;BME280;9381;54.244;10.074;2022-09-23T02:44:35;101357.03;;;11.45;85.17
18504;BME280;9381;54.244;10.074;2022-09-23T02:49:36;101352.88;;;11.42;85.41
18504;BME280;9381;54.244;10.074;2022-09-23T02:54:36;101352.66;;;11.44;85.17
18504;BME280;9381;54.244;10.074;2022-09-23T02:59:37;101352.47;;;11.39;84.70
18504;BME280;9381;54.244;10.074;2022-09-23T03:10:21;101348.69;;;11.40;85.52
18504;BME280;9381;54.244;10.074;2022-09-23T03:20:51;101336.00;;;11.53;85.23
18504;BME280;9381;54.244;10.074;2022-09-23T03:25:55;101326.63;;;11.56;85.38
18504;BME280;9381;54.244;10.074;2022-09-23T03:30:57;101327.44;;;11.56;85.86
18504;BME280;9381;54.244;10.074;2022-09-23T03:36:05;101320.38;;;11.62;85.54
18504;BME280;9381;54.244;10.074;2022-09-23T03:41:30;101305.41;;;11.66;85.53
18504;BME280;9381;54.244;10.074;2022-09-23T03:46:32;101306.22;;;11.66;85.15
18504;BME280;9381;54.244;10.074;2022-09-23T03:51:34;101296.63;;;11.63;84.24
18504;BME280;9381;54.244;10.074;2022-09-23T03:56:34;101295.38;;;11.66;84.22
18504;BME280;9381;54.244;10.074;2022-09-23T04:01:35;101301.03;;;11.65;84.82
18504;BME280;9381;54.244;10.074;2022-09-23T04:06:35;101289.16;;;11.66;84.14
18504;BME280;9381;54.244;10.074;2022-09-23T04:11:35;101286.19;;;11.67;84.55
18504;BME280;9381;54.244;10.074;2022-09-23T04:16:36;101290.38;;;11.69;84.24
18504;BME280;9381;54.244;10.074;2022-09-23T04:21:37;101279.56;;;11.63;84.48
18504;BME280;9381;54.244;10.074;2022-09-23T04:26:38;101275.78;;;11.70;84.54
18504;BME280;9381;54.244;10.074;2022-09-23T04:31:39;101266.63;;;11.65;84.83
18504;BME280;9381;54.244;10.074;2022-09-23T04:36:39;101263.28;;;11.57;85.12
18504;BME280;9381;54.244;10.074;2022-09-23T04:41:40;101262.84;;;11.53;85.43
18504;BME280;9381;54.244;10.074;2022-09-23T04:46:41;101259.72;;;11.50;86.36
18504;BME280;9381;54.244;10.074;2022-09-23T04:51:43;101261.41;;;11.51;86.30
18504;BME280;9381;54.244;10.074;2022-09-23T04:56:43;101259.50;;;11.45;85.96
18504;BME280;9381;54.244;10.074;2022-09-23T05:01:43;101257.03;;;11.50;86.58
18504;BME280;9381;54.244;10.074;2022-09-23T05:06:43;101252.03;;;11.47;86.44
18504;BME280;9381;54.244;10.074;2022-09-23T05:11:44;101251.19;;;11.46;86.65
18504;BME280;9381;54.244;10.074;2022-09-23T05:16:45;101248.06;;;11.43;86.77
18504;BME280;9381;54.244;10.074;2022-09-23T05:21:45;101249.94;;;11.42;87.00
18504;BME280;9381;54.244;10.074;2022-09-23T05:26:45;101249.53;;;11.39;86.84
18504;BME280;9381;54.244;10.074;2022-09-23T05:31:45;101248.69;;;11.32;87.43
18504;BME280;9381;54.244;10.074;2022-09-23T05:36:46;101248.47;;;11.27;87.42
18504;BME280;9381;54.244;10.074;2022-09-23T05:41:46;101248.69;;;11.25;87.58
18504;BME280;9381;54.244;10.074;2022-09-23T05:46:46;101247.84;;;11.25;87.67
18504;BME280;9381;54.244;10.074;2022-09-23T05:51:46;101251.59;;;11.30;87.50
18504;BME280;9381;54.244;10.074;2022-09-23T05:56:47;101244.53;;;11.23;88.24
18504;BME280;9381;54.244;10.074;2022-09-23T06:01:47;101244.13;;;11.39;87.60
18504;BME280;9381;54.244;10.074;2022-09-23T06:06:47;101238.91;;;11.31;87.52
18504;BME280;9381;54.244;10.074;2022-09-23T06:11:48;101237.66;;;11.33;87.65
18504;BME280;9381;54.244;10.074;2022-09-23T06:16:50;101232.44;;;11.38;87.48
18504;BME280;9381;54.244;10.074;2022-09-23T06:21:50;101243.25;;;11.45;87.53
18504;BME280;9381;54.244;10.074;2022-09-23T06:26:50;101235.78;;;11.34;87.87
18504;BME280;9381;54.244;10.074;2022-09-23T06:31:51;101242.22;;;11.33;88.28
18504;BME280;9381;54.244;10.074;2022-09-23T06:36:51;101241.19;;;11.34;88.08
18504;BME280;9381;54.244;10.074;2022-09-23T06:41:52;101234.97;;;11.33;88.32
18504;BME280;9381;54.244;10.074;2022-09-23T06:46:53;101233.69;;;11.29;87.92
18504;BME280;9381;54.244;10.074;2022-09-23T06:51:53;101247.03;;;11.24;88.36
18504;BME280;9381;54.244;10.074;2022-09-23T06:56:55;101246.59;;;11.34;88.80
18504;BME280;9381;54.244;10.074;2022-09-23T07:01:55;101245.34;;;11.43;89.11
18504;BME280;9381;54.244;10.074;2022-09-23T07:06:56;101244.31;;;11.69;87.30
18504;BME280;9381;54.244;10.074;2022-09-23T07:11:56;101252.63;;;11.81;87.37
18504;BME280;9381;54.244;10.074;2022-09-23T07:16:57;101258.63;;;11.89;86.72
18504;BME280;9381;54.244;10.074;2022-09-23T07:21:58;101248.63;;;11.96;85.76
18504;BME280;9381;54.244;10.074;2022-09-23T07:26:59;101249.47;;;11.97;86.58
18504;BME280;9381;54.244;10.074;2022-09-23T07:31:59;101250.44;;;12.15;85.53
18504;BME280;9381;54.244;10.074;2022-09-23T07:37:00;101255.16;;;12.39;86.52
18504;BME280;9381;54.244;10.074;2022-09-23T07:42:00;101255.44;;;12.62;84.41
18504;BME280;9381;54.244;10.074;2022-09-23T07:47:01;101250.47;;;12.90;81.58
18504;BME280;9381;54.244;10.074;2022-09-23T07:52:01;101248.97;;;13.25;82.05
18504;BME280;9381;54.244;10.074;2022-09-23T07:57:01;101242.34;;;13.46;81.55
18504;BME280;9381;54.244;10.074;2022-09-23T08:02:02;101241.78;;;13.62;80.56
18504;BME280;9381;54.244;10.074;2022-09-23T08:07:04;101241.13;;;13.84;79.27
18504;BME280;9381;54.244;10.074;2022-09-23T08:12:05;101240.44;;;14.07;79.08
18504;BME280;9381;54.244;10.074;2022-09-23T08:17:05;101239.03;;;14.22;78.81
18504;BME280;9381;54.244;10.074;2022-09-23T08:22:05;101243.78;;;14.27;77.94
18504;BME280;9381;54.244;10.074;2022-09-23T08:27:05;101240.75;;;14.35;78.49
18504;BME280;9381;54.244;10.074;2022-09-23T08:32:06;101229.16;;;14.57;79.36
18504;BME280;9381;54.244;10.074;2022-09-23T08:37:10;101230.78;;;14.76;78.46
18504;BME280;9381;54.244;10.074;2022-09-23T08:42:20;101219.56;;;14.95;78.18
18504;BME280;9381;54.244;10.074;2022-09-23T08:47:48;101214.38;;;15.05;77.23
18504;BME280;9381;54.244;10.074;2022-09-23T08:52:57;101209.19;;;15.27;77.09
18504;BME280;9381;54.244;10.074;2022-09-23T09:03:56;101196.31;;;15.34;75.45
18504;BME280;9381;54.244;10.074;2022-09-23T09:08:33;101198.81;;;15.47;76.27
18504;BME280;9381;54.244;10.074;2022-09-23T09:13:38;101195.50;;;15.79;76.83
18504;BME280;9381;54.244;10.074;2022-09-23T09:18:54;101190.91;;;16.08;74.86
18504;BME280;9381;54.244;10.074;2022-09-23T09:23:56;101183.13;;;16.28;74.31
18504;BME280;9381;54.244;10.074;2022-09-23T09:29:19;101186.19;;;16.43;74.13
18504;BME280;9381;54.244;10.074;2022-09-23T09:34:32;101184.44;;;16.65;74.24
18504;BME280;9381;54.244;10.074;2022-09-23T09:39:35;101184.50;;;17.14;74.53
18504;BME280;9381;54.244;10.074;2022-09-23T09:44:42;101181.53;;;17.49;69.88
18504;BME280;9381;54.244;10.074;2022-09-23T09:49:52;101162.53;;;18.39;69.29
18504;BME280;9381;54.244;10.074;2022-09-23T09:55:15;101155.63;;;20.04;66.52
18504;BME280;9381;54.244;10.074;2022-09-23T10:05:29;101141.31;;;20.94;59.20
18504;BME280;9381;54.244;10.074;2022-09-23T10:10:31;101140.94;;;21.75;59.74
18504;BME280;9381;54.244;10.074;2022-09-23T10:15:40;101139.97;;;22.14;55.58
18504;BME280;9381;54.244;10.074;2022-09-23T10:20:41;101136.59;;;21.44;55.88
18504;BME280;9381;54.244;10.074;2022-09-23T10:25:41;101128.84;;;21.61;58.82
18504;BME280;9381;54.244;10.074;2022-09-23T10:31:02;101137.44;;;23.15;53.08
18504;BME280;9381;54.244;10.074;2022-09-23T10:36:07;101133.78;;;23.48;51.49
18504;BME280;9381;54.244;10.074;2022-09-23T10:41:16;101124.16;;;23.12;53.19
18504;BME280;9381;54.244;10.074;2022-09-23T10:47:02;101121.84;;;22.90;55.18
18504;BME280;9381;54.244;10.074;2022-09-23T10:57:30;101119.47;;;22.35;55.95
18504;BME280;9381;54.244;10.074;2022-09-23T11:13:22;101102.97;;;22.74;55.57
18504;BME280;9381;54.244;10.074;2022-09-23T11:18:41;101097.25;;;22.99;52.75
18504;BME280;9381;54.244;10.074;2022-09-23T11:29:24;101088.28;;;22.40;57.40
18504;BME280;9381;54.244;10.074;2022-09-23T11:34:57;101070.94;;;22.39;53.80
18504;BME280;9381;54.244;10.074;2022-09-23T11:40:14;101081.69;;;22.41;54.82
18504;BME280;9381;54.244;10.074;2022-09-23T11:45:23;101074.19;;;22.85;57.00
18504;BME280;9381;54.244;10.074;2022-09-23T11:50:31;101067.31;;;23.16;53.43
18504;BME280;9381;54.244;10.074;2022-09-23T11:55:42;101068.50;;;22.71;53.58
18504;BME280;9381;54.244;10.074;2022-09-23T12:00:49;101061.84;;;22.44;54.85
18504;BME280;9381;54.244;10.074;2022-09-23T12:06:09;101064.63;;;22.34;54.32
18504;BME280;9381;54.244;10.074;2022-09-23T12:17:01;101055.09;;;22.93;52.40
18504;BME280;9381;54.244;10.074;2022-09-23T12:27:36;101036.47;;;23.37;51.80
18504;BME280;9381;54.244;10.074;2022-09-23T12:32:39;101033.47;;;23.34;53.54
18504;BME280;9381;54.244;10.074;2022-09-23T12:37:41;101025.88;;;23.21;53.04
18504;BME280;9381;54.244;10.074;2022-09-23T12:42:43;101027.50;;;23.22;50.91
18504;BME280;9381;54.244;10.074;2022-09-23T12:47:45;101023.75;;;23.36;52.52
18504;BME280;9381;54.244;10.074;2022-09-23T12:52:46;101019.63;;;22.82;52.78
18504;BME280;9381;54.244;10.074;2022-09-23T12:57:47;101021.56;;;22.04;52.17
18504;BME280;9381;54.244;10.074;2022-09-23T13:08:11;101020.97;;;21.49;56.89
18504;BME280;9381;54.244;10.074;2022-09-23T13:13:22;101020.75;;;21.35;54.64
18504;BME280;9381;54.244;10.074;2022-09-23T13:18:52;101007.81;;;21.31;54.26
18504;BME280;9381;54.244;10.074;2022-09-23T13:29:25;100990.00;;;21.13;57.18
18504;BME280;9381;54.244;10.074;2022-09-23T13:34:31;100996.66;;;20.73;53.95
18504;BME280;9381;54.244;10.074;2022-09-23T13:39:32;100996.41;;;20.44;56.05
18504;BME280;9381;54.244;10.074;2022-09-23T13:44:32;100989.22;;;20.08;55.55
18504;BME280;9381;54.244;10.074;2022-09-23T13:49:34;100981.00;;;20.08;55.40
18504;BME280;9381;54.244;10.074;2022-09-23T13:54:47;100983.19;;;20.26;59.08
18504;BME280;9381;54.244;10.074;2022-09-23T13:59:48;100974.41;;;20.24;58.84
18504;BME280;9381;54.244;10.074;2022-09-23T14:04:48;100970.50;;;19.95;54.27
18504;BME280;9381;54.244;10.074;2022-09-23T14:09:51;100962.78;;;19.77;54.85
18504;BME280;9381;54.244;10.074;2022-09-23T14:14:53;100964.75;;;19.92;57.56
18504;BME280;9381;54.244;10.074;2022-09-23T14:19:53;100963.03;;;19.66;55.88
18504;BME280;9381;54.244;10.074;2022-09-23T14:24:55;100964.44;;;19.83;57.83
18504;BME280;9381;54.244;10.074;2022-09-23T14:29:57;100960.59;;;19.84;58.07
18504;BME280;9381;54.244;10.074;2022-09-23T14:40:10;100952.81;;;19.41;55.55
18504;BME280;9381;54.244;10.074;2022-09-23T14:45:17;100947.22;;;19.21;56.19
18504;BME280;9381;54.244;10.074;2022-09-23T14:50:24;100942.59;;;19.27;58.39
18504;BME280;9381;54.244;10.074;2022-09-23T14:55:48;100942.59;;;19.32;59.10
18504;BME280;9381;54.244;10.074;2022-09-23T15:00:55;100934.09;;;19.28;59.99
18504;BME280;9381;54.244;10.074;2022-09-23T15:06:03;100932.44;;;19.22;65.60
18504;BME280;9381;54.244;10.074;2022-09-23T15:11:08;100931.78;;;19.10;63.75
18504;BME280;9381;54.244;10.074;2022-09-23T15:16:08;100929.59;;;19.07;65.71
18504;BME280;9381;54.244;10.074;2022-09-23T15:21:11;100927.38;;;19.09;69.43
18504;BME280;9381;54.244;10.074;2022-09-23T15:26:17;100928.75;;;19.07;69.05
18504;BME280;9381;54.244;10.074;2022-09-23T15:31:19;100915.28;;;19.00;69.69
18504;BME280;9381;54.244;10.074;2022-09-23T15:36:23;100922.13;;;18.93;71.31
18504;BME280;9381;54.244;10.074;2022-09-23T15:41:27;100924.16;;;18.71;71.48
18504;BME280;9381;54.244;10.074;2022-09-23T15:46:28;100923.78;;;18.52;71.89
18504;BME280;9381;54.244;10.074;2022-09-23T15:51:29;100919.63;;;18.45;73.87
18504;BME280;9381;54.244;10.074;2022-09-23T15:56:30;100915.19;;;18.39;74.72
18504;BME280;9381;54.244;10.074;2022-09-23T16:01:32;100915.72;;;18.36;75.92
18504;BME280;9381;54.244;10.074;2022-09-23T16:06:35;100905.47;;;18.26;76.70
18504;BME280;9381;54.244;10.074;2022-09-23T16:11:35;100906.00;;;18.23;77.27
18504;BME280;9381;54.244;10.074;2022-09-23T16:16:37;100912.50;;;18.12;77.04
18504;BME280;9381;54.244;10.074;2022-09-23T16:21:38;100907.50;;;18.04;77.57
18504;BME280;9381;54.244;10.074;2022-09-23T16:26:40;100906.81;;;17.92;77.96
18504;BME280;9381;54.244;10.074;2022-09-23T16:31:42;100910.53;;;17.77;78.90
18504;BME280;9381;54.244;10.074;2022-09-23T16:36:42;100905.16;;;17.60;78.97
18504;BME280;9381;54.244;10.074;2022-09-23T16:41:43;100910.19;;;17.47;79.12
18504;BME280;9381;54.244;10.074;2022-09-23T16:46:43;100900.97;;;17.31;79.33
18504;BME280;9381;54.244;10.074;2022-09-23T16:51:44;100901.59;;;17.12;80.12
18504;BME280;9381;54.244;10.074;2022-09-23T16:56:44;100893.19;;;16.97;80.64
18504;BME280;9381;54.244;10.074;2022-09-23T17:01:46;100899.84;;;16.84;81.84
18504;BME280;9381;54.244;10.074;2022-09-23T17:07:05;100903.25;;;16.75;82.53
18504;BME280;9381;54.244;10.074;2022-09-23T17:12:12;100893.78;;;16.61;83.55
18504;BME280;9381;54.244;10.074;2022-09-23T17:17:17;100899.09;;;16.51;84.17
18504;BME280;9381;54.244;10.074;2022-09-23T17:22:18;100902.25;;;16.43;84.96
18504;BME280;9381;54.244;10.074;2022-09-23T17:27:18;100907.53;;;16.33;85.21
18504;BME280;9381;54.244;10.074;2022-09-23T17:32:19;100901.94;;;16.23;85.77
18504;BME280;9381;54.244;10.074;2022-09-23T17:37:20;100900.69;;;16.14;86.25
18504;BME280;9381;54.244;10.074;2022-09-23T17:42:20;100884.91;;;15.99;86.80
18504;BME280;9381;54.244;10.074;2022-09-23T17:47:21;100891.84;;;15.90;86.56
18504;BME280;9381;54.244;10.074;2022-09-23T17:52:21;100899.69;;;15.87;86.50
18504;BME280;9381;54.244;10.074;2022-09-23T17:57:22;100898.09;;;15.74;87.24
18504;BME280;9381;54.244;10.074;2022-09-23T18:02:22;100893.78;;;15.62;87.16
18504;BME280;9381;54.244;10.074;2022-09-23T18:07:22;100892.13;;;15.61;87.21
18504;BME280;9381;54.244;10.074;2022-09-23T18:12:23;100894.66;;;15.51;87.47
18504;BME280;9381;54.244;10.074;2022-09-23T18:17:23;100892.53;;;15.53;87.37
18504;BME280;9381;54.244;10.074;2022-09-23T18:22:23;100894.56;;;15.46;87.91
18504;BME280;9381;54.244;10.074;2022-09-23T18:27:24;100890.56;;;15.37;88.37
18504;BME280;9381;54.244;10.074;2022-09-23T18:32:24;100892.72;;;15.35;88.36
18504;BME280;9381;54.244;10.074;2022-09-23T18:37:24;100890.97;;;15.29;88.24
18504;BME280;9381;54.244;10.074;2022-09-23T18:42:25;100889.19;;;15.23;88.57
18504;BME280;9381;54.244;10.074;2022-09-23T18:47:27;100897.53;;;15.05;88.64
18504;BME280;9381;54.244;10.074;2022-09-23T18:52:46;100902.28;;;14.98;89.02
18504;BME280;9381;54.244;10.074;2022-09-23T18:57:47;100899.38;;;14.88;89.65
18504;BME280;9381;54.244;10.074;2022-09-23T19:02:47;100899.84;;;14.85;89.63
18504;BME280;9381;54.244;10.074;2022-09-23T19:07:48;100899.00;;;14.84;89.79
18504;BME280;9381;54.244;10.074;2022-09-23T19:12:48;100893.94;;;14.76;90.16
18504;BME280;9381;54.244;10.074;2022-09-23T19:17:48;100888.13;;;14.73;90.48
18504;BME280;9381;54.244;10.074;2022-09-23T19:22:49;100893.00;;;14.71;90.23
18504;BME280;9381;54.244;10.074;2022-09-23T19:27:49;100891.72;;;14.62;90.23
18504;BME280;9381;54.244;10.074;2022-09-23T19:32:49;100885.91;;;14.59;90.08
18504;BME280;9381;54.244;10.074;2022-09-23T19:37:50;100882.38;;;14.58;90.43
18504;BME280;9381;54.244;10.074;2022-09-23T19:42:50;100881.78;;;14.56;90.44
18504;BME280;9381;54.244;10.074;2022-09-23T19:47:53;100884.88;;;14.48;90.54
18504;BME280;9381;54.244;10.074;2022-09-23T19:52:56;100891.50;;;14.41;91.02
18504;BME280;9381;54.244;10.074;2022-09-23T19:57:57;100885.59;;;14.32;91.10
18504;BME280;9381;54.244;10.074;2022-09-23T20:02:57;100887.50;;;14.20;90.88
18504;BME280;9381;54.244;10.074;2022-09-23T20:07:58;100878.72;;;14.18;91.15
18504;BME280;9381;54.244;10.074;2022-09-23T20:12:58;100871.94;;;14.09;91.27
18504;BME280;9381;54.244;10.074;2022-09-23T20:17:59;100875.63;;;14.03;91.53
18504;BME280;9381;54.244;10.074;2022-09-23T20:22:59;100867.56;;;13.85;91.37
18504;BME280;9381;54.244;10.074;2022-09-23T20:28:00;100866.09;;;13.71;91.53
18504;BME280;9381;54.244;10.074;2022-09-23T20:33:00;100860.66;;;13.71;90.79
18504;BME280;9381;54.244;10.074;2022-09-23T20:38:01;100864.78;;;13.62;91.54
18504;BME280;9381;54.244;10.074;2022-09-23T20:43:01;100861.00;;;13.52;91.93
18504;BME280;9381;54.244;10.074;2022-09-23T20:48:03;100857.91;;;13.48;91.93
18504;BME280;9381;54.244;10.074;2022-09-23T20:53:05;100859.09;;;13.52;92.26
18504;BME280;9381;54.244;10.074;2022-09-23T20:58:06;100852.69;;;13.47;92.45
18504;BME280;9381;54.244;10.074;2022-09-23T21:03:06;100852.00;;;13.51;92.74
18504;BME280;9381;54.244;10.074;2022-09-23T21:08:08;100857.28;;;13.46;93.19
18504;BME280;9381;54.244;10.074;2022-09-23T21:13:08;100846.53;;;13.40;93.84
18504;BME280;9381;54.244;10.074;2022-09-23T21:18:08;100844.06;;;13.38;94.28
18504;BME280;9381;54.244;10.074;2022-09-23T21:23:09;100841.94;;;13.40;94.38
18504;BME280;9381;54.244;10.074;2022-09-23T21:28:09;100849.94;;;13.35;94.54
18504;BME280;9381;54.244;10.074;2022-09-23T21:33:09;100847.47;;;13.34;94.41
18504;BME280;9381;54.244;10.074;2022-09-23T21:38:10;100848.38;;;13.28;94.49
18504;BME280;9381;54.244;10.074;2022-09-23T21:43:10;100846.50;;;13.28;94.99
18504;BME280;9381;54.244;10.074;2022-09-23T21:48:11;100845.91;;;13.26;95.05
18504;BME280;9381;54.244;10.074;2022-09-23T21:53:12;100844.25;;;13.25;95.18
18504;BME280;9381;54.244;10.074;2022-09-23T21:58:12;100845.19;;;13.19;95.14
18504;BME280;9381;54.244;10.074;2022-09-23T22:03:13;100846.31;;;13.12;95.14
18504;BME280;9381;54.244;10.074;2022-09-23T22:08:14;100839.91;;;13.06;95.40
18504;BME280;9381;54.244;10.074;2022-09-23T22:13:14;100834.50;;;13.06;95.56
18504;BME280;9381;54.244;10.074;2022-09-23T22:18:15;100838.94;;;13.01;95.96
18504;BME280;9381;54.244;10.074;2022-09-23T22:23:16;100833.31;;;13.02;95.95
18504;BME280;9381;54.244;10.074;2022-09-23T22:28:16;100831.03;;;12.99;96.83
18504;BME280;9381;54.244;10.074;2022-09-23T22:33:35;100826.91;;;12.97;96.62
18504;BME280;9381;54.244;10.074;2022-09-23T22:38:36;100822.94;;;12.93;96.38
18504;BME280;9381;54.244;10.074;2022-09-23T22:43:37;100825.88;;;12.91;96.54
18504;BME280;9381;54.244;10.074;2022-09-23T22:48:38;100824.69;;;12.87;95.61
18504;BME280;9381;54.244;10.074;2022-09-23T22:53:38;100823.84;;;12.87;95.95
18504;BME280;9381;54.244;10.074;2022-09-23T22:58:39;100823.50;;;12.83;95.67
18504;BME280;9381;54.244;10.074;2022-09-23T23:03:39;100819.44;;;12.74;95.54
18504;BME280;9381;54.244;10.074;2022-09-23T23:08:40;100821.00;;;12.82;95.47
18504;BME280;9381;54.244;10.074;2022-09-23T23:13:41;100813.09;;;12.80;94.93
18504;BME280;9381;54.244;10.074;2022-09-23T23:18:41;100810.25;;;12.75;95.85
18504;BME280;9381;54.244;10.074;2022-09-23T23:23:45;100810.69;;;12.72;96.60
18504;BME280;9381;54.244;10.074;2022-09-23T23:28:45;100811.16;;;12.69;96.59
18504;BME280;9381;54.244;10.074;2022-09-23T23:33:46;100806.19;;;12.66;97.24
18504;BME280;9381;54.244;10.074;2022-09-23T23:38:48;100797.88;;;12.61;97.65
18504;BME280;9381;54.244;10.074;2022-09-23T23:43:55;100806.50;;;12.58;97.42
18504;BME280;9381;54.244;10.074;2022-09-23T23:48:56;100804.09;;;12.50;97.58
18504;BME280;9381;54.244;10.074;2022-09-23T23:53:58;100804.94;;;12.51;98.25
18504;BME280;9381;54.244;10.074;2022-09-23T23:59:00;100800.19;;;12.46;98.87
